sensor_id;sensor_type;location;lat;lon;timestamp;P1;durP1;ratioP1;P2;durP2;ratioP2
15198;SDS011;7700;48.654;9.070;2022-09-12T00:00:48;7.18;;;6.57;;
15198;SDS011;7700;48.654;9.070;2022-09-12T00:03:15;6.97;;;6.35;;
15198;SDS011;7700;48.654;9.070;2022-09-12T00:05:41;6.55;;;6.05;;
15198;SDS011;7700;48.654;9.070;2022-09-12T00:08:08;6.85;;;6.25;;
15198;SDS011;7700;48.654;9.070;2022-09-12T00:10:38;6.32;;;5.72;;
15198;SDS011;7700;48.654;9.070;2022-09-12T00:13:04;6.25;;;5.75;;
15198;SDS011;7700;48.654;9.070;2022-09-12T00:15:30;6.20;;;5.70;;
15198;SDS011;7700;48.654;9.070;2022-09-12T00:17:56;6.00;;;5.50;;
15198;SDS011;7700;48.654;9.070;2022-09-12T00:20:22;5.95;;;5.50;;
15198;SDS011;7700;48.654;9.070;2022-09-12T00:22:48;6.68;;;6.10;;
15198;SDS011;7700;48.654;9.070;2022-09-12T00:25:14;6.95;;;6.15;;
15198;SDS011;7700;48.654;9.070;2022-09-12T00:27:40;24.85;;;7.40;;
15198;SDS011;7700;48.654;9.070;2022-09-12T00:30:06;7.05;;;6.53;;
15198;SDS011;7700;48.654;9.070;2022-09-12T00:32:33;6.90;;;6.30;;
15198;SDS011;7700;48.654;9.070;2022-09-12T00:34:59;6.85;;;6.22;;
15198;SDS011;7700;48.654;9.070;2022-09-12T00:37:26;7.07;;;6.47;;
15198;SDS011;7700;48.654;9.070;2022-09-12T00:39:52;6.47;;;5.90;;
15198;SDS011;7700;48.654;9.070;2022-09-12T00:42:18;6.55;;;5.85;;
15198;SDS011;7700;48.654;9.070;2022-09-12T00:44:46;7.45;;;6.70;;
15198;SDS011;7700;48.654;9.070;2022-09-12T00:47:13;7.10;;;6.55;;
15198;SDS011;7700;48.654;9.070;2022-09-12T00:49:58;6.63;;;6.15;;
15198;SDS011;7700;48.654;9.070;2022-09-12T00:55:05;8.45;;;6.40;;
15198;SDS011;7700;48.654;9.070;2022-09-12T00:57:35;7.13;;;6.38;;
15198;SDS011;7700;48.654;9.070;2022-09-12T01:00:07;6.70;;;6.03;;
15198;SDS011;7700;48.654;9.070;2022-09-12T01:02:38;6.28;;;5.70;;
15198;SDS011;7700;48.654;9.070;2022-09-12T01:05:05;6.90;;;6.38;;
15198;SDS011;7700;48.654;9.070;2022-09-12T01:07:33;6.93;;;6.35;;
15198;SDS011;7700;48.654;9.070;2022-09-12T01:10:00;7.50;;;6.90;;
15198;SDS011;7700;48.654;9.070;2022-09-12T01:12:26;8.80;;;7.43;;
15198;SDS011;7700;48.654;9.070;2022-09-12T01:14:52;7.90;;;7.00;;
15198;SDS011;7700;48.654;9.070;2022-09-12T01:17:18;8.05;;;7.15;;
15198;SDS011;7700;48.654;9.070;2022-09-12T01:27:41;7.23;;;6.57;;
15198;SDS011;7700;48.654;9.070;2022-09-12T01:43:20;8.68;;;7.72;;
15198;SDS011;7700;48.654;9.070;2022-09-12T01:48:29;8.07;;;7.37;;
15198;SDS011;7700;48.654;9.070;2022-09-12T01:51:43;7.53;;;6.83;;
15198;SDS011;7700;48.654;9.070;2022-09-12T01:53:51;7.80;;;7.10;;
15198;SDS011;7700;48.654;9.070;2022-09-12T01:56:26;7.47;;;6.87;;
15198;SDS011;7700;48.654;9.070;2022-09-12T01:59:00;8.03;;;7.43;;
15198;SDS011;7700;48.654;9.070;2022-09-12T02:01:29;8.60;;;7.77;;
15198;SDS011;7700;48.654;9.070;2022-09-12T02:03:59;8.38;;;7.70;;
15198;SDS011;7700;48.654;9.070;2022-09-12T02:06:31;8.13;;;7.32;;
15198;SDS011;7700;48.654;9.070;2022-09-12T02:09:02;7.97;;;7.23;;
15198;SDS011;7700;48.654;9.070;2022-09-12T02:11:30;7.60;;;7.00;;
15198;SDS011;7700;48.654;9.070;2022-09-12T02:14:00;8.27;;;7.40;;
15198;SDS011;7700;48.654;9.070;2022-09-12T02:16:30;7.57;;;6.87;;
15198;SDS011;7700;48.654;9.070;2022-09-12T02:18:59;8.23;;;7.53;;
15198;SDS011;7700;48.654;9.070;2022-09-12T02:21:27;7.00;;;6.30;;
15198;SDS011;7700;48.654;9.070;2022-09-12T02:23:57;6.57;;;5.97;;
15198;SDS011;7700;48.654;9.070;2022-09-12T02:26:30;6.60;;;6.00;;
15198;SDS011;7700;48.654;9.070;2022-09-12T02:28:58;6.20;;;5.63;;
15198;SDS011;7700;48.654;9.070;2022-09-12T02:36:47;6.27;;;5.67;;
15198;SDS011;7700;48.654;9.070;2022-09-12T02:39:14;6.68;;;6.10;;
15198;SDS011;7700;48.654;9.070;2022-09-12T02:41:44;6.90;;;6.30;;
15198;SDS011;7700;48.654;9.070;2022-09-12T02:44:10;6.73;;;6.07;;
15198;SDS011;7700;48.654;9.070;2022-09-12T02:46:40;7.80;;;6.60;;
15198;SDS011;7700;48.654;9.070;2022-09-12T02:49:07;7.20;;;6.38;;
15198;SDS011;7700;48.654;9.070;2022-09-12T02:51:33;6.90;;;6.30;;
15198;SDS011;7700;48.654;9.070;2022-09-12T02:54:00;6.97;;;6.33;;
15198;SDS011;7700;48.654;9.070;2022-09-12T02:56:27;7.50;;;6.80;;
15198;SDS011;7700;48.654;9.070;2022-09-12T02:58:55;6.87;;;6.27;;
15198;SDS011;7700;48.654;9.070;2022-09-12T03:04:06;7.03;;;6.40;;
15198;SDS011;7700;48.654;9.070;2022-09-12T03:09:11;6.80;;;6.20;;
15198;SDS011;7700;48.654;9.070;2022-09-12T03:16:52;5.97;;;5.40;;
15198;SDS011;7700;48.654;9.070;2022-09-12T03:21:57;7.90;;;6.73;;
15198;SDS011;7700;48.654;9.070;2022-09-12T03:24:31;5.70;;;5.30;;
15198;SDS011;7700;48.654;9.070;2022-09-12T03:27:06;6.50;;;5.87;;
15198;SDS011;7700;48.654;9.070;2022-09-12T03:29:35;6.63;;;6.07;;
15198;SDS011;7700;48.654;9.070;2022-09-12T03:32:01;6.70;;;6.00;;
15198;SDS011;7700;48.654;9.070;2022-09-12T03:34:27;7.47;;;6.57;;
15198;SDS011;7700;48.654;9.070;2022-09-12T03:36:53;6.37;;;5.77;;
15198;SDS011;7700;48.654;9.070;2022-09-12T03:39:20;6.90;;;6.30;;
15198;SDS011;7700;48.654;9.070;2022-09-12T03:41:48;7.50;;;6.50;;
15198;SDS011;7700;48.654;9.070;2022-09-12T03:44:14;6.47;;;5.70;;
15198;SDS011;7700;48.654;9.070;2022-09-12T03:46:40;6.00;;;5.50;;
15198;SDS011;7700;48.654;9.070;2022-09-12T03:49:06;7.50;;;6.83;;
15198;SDS011;7700;48.654;9.070;2022-09-12T03:51:32;7.03;;;6.43;;
15198;SDS011;7700;48.654;9.070;2022-09-12T03:53:58;8.03;;;7.33;;
15198;SDS011;7700;48.654;9.070;2022-09-12T03:56:24;12.83;;;11.63;;
15198;SDS011;7700;48.654;9.070;2022-09-12T03:58:50;10.57;;;9.57;;
15198;SDS011;7700;48.654;9.070;2022-09-12T04:01:19;8.67;;;7.93;;
15198;SDS011;7700;48.654;9.070;2022-09-12T04:03:47;9.23;;;8.07;;
15198;SDS011;7700;48.654;9.070;2022-09-12T04:06:14;7.20;;;6.60;;
15198;SDS011;7700;48.654;9.070;2022-09-12T04:08:41;8.10;;;6.57;;
15198;SDS011;7700;48.654;9.070;2022-09-12T04:11:08;7.37;;;6.77;;
15198;SDS011;7700;48.654;9.070;2022-09-12T04:13:35;6.80;;;6.10;;
15198;SDS011;7700;48.654;9.070;2022-09-12T04:16:02;9.33;;;6.73;;
15198;SDS011;7700;48.654;9.070;2022-09-12T04:18:28;7.57;;;6.93;;
15198;SDS011;7700;48.654;9.070;2022-09-12T04:20:55;7.63;;;7.03;;
15198;SDS011;7700;48.654;9.070;2022-09-12T04:23:21;7.00;;;6.40;;
15198;SDS011;7700;48.654;9.070;2022-09-12T04:25:53;7.73;;;6.57;;
15198;SDS011;7700;48.654;9.070;2022-09-12T04:28:20;7.47;;;6.87;;
15198;SDS011;7700;48.654;9.070;2022-09-12T04:30:46;8.60;;;7.60;;
15198;SDS011;7700;48.654;9.070;2022-09-12T04:33:12;7.77;;;6.97;;
15198;SDS011;7700;48.654;9.070;2022-09-12T04:35:38;6.83;;;6.33;;
15198;SDS011;7700;48.654;9.070;2022-09-12T04:38:05;7.00;;;6.37;;
15198;SDS011;7700;48.654;9.070;2022-09-12T04:40:31;7.10;;;6.50;;
15198;SDS011;7700;48.654;9.070;2022-09-12T04:42:57;7.33;;;6.63;;
15198;SDS011;7700;48.654;9.070;2022-09-12T04:45:23;6.40;;;5.80;;
15198;SDS011;7700;48.654;9.070;2022-09-12T04:47:50;6.80;;;6.20;;
15198;SDS011;7700;48.654;9.070;2022-09-12T04:50:16;7.20;;;6.50;;
15198;SDS011;7700;48.654;9.070;2022-09-12T04:52:42;6.23;;;5.73;;
15198;SDS011;7700;48.654;9.070;2022-09-12T04:55:08;6.47;;;5.83;;
15198;SDS011;7700;48.654;9.070;2022-09-12T04:57:34;6.87;;;6.27;;
15198;SDS011;7700;48.654;9.070;2022-09-12T05:00:01;6.80;;;6.20;;
15198;SDS011;7700;48.654;9.070;2022-09-12T05:02:29;6.70;;;5.83;;
15198;SDS011;7700;48.654;9.070;2022-09-12T05:04:55;6.97;;;6.37;;
15198;SDS011;7700;48.654;9.070;2022-09-12T05:07:21;7.33;;;6.73;;
15198;SDS011;7700;48.654;9.070;2022-09-12T05:09:47;7.27;;;6.27;;
15198;SDS011;7700;48.654;9.070;2022-09-12T05:12:13;7.53;;;6.83;;
15198;SDS011;7700;48.654;9.070;2022-09-12T05:14:39;8.50;;;7.17;;
15198;SDS011;7700;48.654;9.070;2022-09-12T05:17:05;7.83;;;7.00;;
15198;SDS011;7700;48.654;9.070;2022-09-12T05:19:33;9.73;;;7.10;;
15198;SDS011;7700;48.654;9.070;2022-09-12T05:21:59;8.23;;;7.37;;
15198;SDS011;7700;48.654;9.070;2022-09-12T05:24:25;7.97;;;7.07;;
15198;SDS011;7700;48.654;9.070;2022-09-12T05:26:51;7.50;;;6.80;;
15198;SDS011;7700;48.654;9.070;2022-09-12T05:29:17;6.90;;;6.00;;
15198;SDS011;7700;48.654;9.070;2022-09-12T05:31:43;6.47;;;5.97;;
15198;SDS011;7700;48.654;9.070;2022-09-12T05:34:10;7.87;;;6.00;;
15198;SDS011;7700;48.654;9.070;2022-09-12T05:36:36;7.67;;;6.00;;
15198;SDS011;7700;48.654;9.070;2022-09-12T05:39:02;7.10;;;6.17;;
15198;SDS011;7700;48.654;9.070;2022-09-12T05:41:29;7.23;;;6.47;;
15198;SDS011;7700;48.654;9.070;2022-09-12T05:43:57;8.23;;;6.43;;
15198;SDS011;7700;48.654;9.070;2022-09-12T05:46:24;8.13;;;6.73;;
15198;SDS011;7700;48.654;9.070;2022-09-12T05:48:51;8.07;;;6.67;;
15198;SDS011;7700;48.654;9.070;2022-09-12T05:51:26;7.80;;;7.10;;
15198;SDS011;7700;48.654;9.070;2022-09-12T05:53:53;7.73;;;7.03;;
15198;SDS011;7700;48.654;9.070;2022-09-12T05:56:20;6.87;;;6.23;;
15198;SDS011;7700;48.654;9.070;2022-09-12T05:58:54;7.23;;;6.53;;
15198;SDS011;7700;48.654;9.070;2022-09-12T06:01:20;7.43;;;6.73;;
15198;SDS011;7700;48.654;9.070;2022-09-12T06:03:50;7.97;;;7.27;;
15198;SDS011;7700;48.654;9.070;2022-09-12T06:06:17;7.30;;;6.60;;
15198;SDS011;7700;48.654;9.070;2022-09-12T06:08:44;7.27;;;6.30;;
15198;SDS011;7700;48.654;9.070;2022-09-12T06:11:11;8.07;;;6.67;;
15198;SDS011;7700;48.654;9.070;2022-09-12T06:13:38;6.60;;;6.00;;
15198;SDS011;7700;48.654;9.070;2022-09-12T06:18:31;8.40;;;6.97;;
15198;SDS011;7700;48.654;9.070;2022-09-12T06:21:00;8.27;;;7.47;;
15198;SDS011;7700;48.654;9.070;2022-09-12T06:23:26;7.97;;;7.27;;
15198;SDS011;7700;48.654;9.070;2022-09-12T06:25:52;7.43;;;6.73;;
15198;SDS011;7700;48.654;9.070;2022-09-12T06:28:19;7.97;;;7.27;;
15198;SDS011;7700;48.654;9.070;2022-09-12T06:30:45;8.10;;;7.30;;
15198;SDS011;7700;48.654;9.070;2022-09-12T06:33:11;8.57;;;7.60;;
15198;SDS011;7700;48.654;9.070;2022-09-12T06:35:37;9.67;;;8.17;;
15198;SDS011;7700;48.654;9.070;2022-09-12T06:38:03;8.93;;;7.87;;
15198;SDS011;7700;48.654;9.070;2022-09-12T06:40:30;11.37;;;8.47;;
15198;SDS011;7700;48.654;9.070;2022-09-12T06:42:56;9.60;;;8.70;;
15198;SDS011;7700;48.654;9.070;2022-09-12T06:45:22;11.10;;;9.43;;
15198;SDS011;7700;48.654;9.070;2022-09-12T06:47:48;10.37;;;9.40;;
15198;SDS011;7700;48.654;9.070;2022-09-12T06:50:14;10.38;;;9.35;;
15198;SDS011;7700;48.654;9.070;2022-09-12T06:52:40;10.50;;;9.50;;
15198;SDS011;7700;48.654;9.070;2022-09-12T06:55:06;10.77;;;9.77;;
15198;SDS011;7700;48.654;9.070;2022-09-12T06:57:32;12.27;;;9.53;;
15198;SDS011;7700;48.654;9.070;2022-09-12T07:00:02;9.88;;;8.93;;
15198;SDS011;7700;48.654;9.070;2022-09-12T07:02:29;9.17;;;8.30;;
15198;SDS011;7700;48.654;9.070;2022-09-12T07:04:55;8.85;;;8.05;;
15198;SDS011;7700;48.654;9.070;2022-09-12T07:07:21;8.23;;;7.53;;
15198;SDS011;7700;48.654;9.070;2022-09-12T07:09:48;8.93;;;8.07;;
15198;SDS011;7700;48.654;9.070;2022-09-12T07:12:14;8.60;;;7.80;;
15198;SDS011;7700;48.654;9.070;2022-09-12T07:14:40;9.00;;;7.75;;
15198;SDS011;7700;48.654;9.070;2022-09-12T07:17:06;9.50;;;8.70;;
15198;SDS011;7700;48.654;9.070;2022-09-12T07:19:33;8.32;;;7.32;;
15198;SDS011;7700;48.654;9.070;2022-09-12T07:21:59;7.13;;;6.43;;
15198;SDS011;7700;48.654;9.070;2022-09-12T07:24:26;8.52;;;7.78;;
15198;SDS011;7700;48.654;9.070;2022-09-12T07:26:52;9.38;;;8.52;;
15198;SDS011;7700;48.654;9.070;2022-09-12T07:29:18;8.75;;;7.95;;
15198;SDS011;7700;48.654;9.070;2022-09-12T07:31:44;8.98;;;8.18;;
15198;SDS011;7700;48.654;9.070;2022-09-12T07:34:11;7.90;;;7.15;;
15198;SDS011;7700;48.654;9.070;2022-09-12T07:36:37;7.53;;;6.93;;
15198;SDS011;7700;48.654;9.070;2022-09-12T07:39:03;8.02;;;7.32;;
15198;SDS011;7700;48.654;9.070;2022-09-12T07:41:30;8.27;;;7.45;;
15198;SDS011;7700;48.654;9.070;2022-09-12T07:44:00;8.05;;;7.35;;
15198;SDS011;7700;48.654;9.070;2022-09-12T07:46:27;7.90;;;6.95;;
15198;SDS011;7700;48.654;9.070;2022-09-12T07:48:54;7.70;;;7.10;;
15198;SDS011;7700;48.654;9.070;2022-09-12T07:51:20;10.70;;;9.95;;
15198;SDS011;7700;48.654;9.070;2022-09-12T07:53:47;14.13;;;13.43;;
15198;SDS011;7700;48.654;9.070;2022-09-12T07:56:13;29.67;;;28.42;;
15198;SDS011;7700;48.654;9.070;2022-09-12T07:58:40;13.52;;;12.80;;
15198;SDS011;7700;48.654;9.070;2022-09-12T08:01:10;16.00;;;15.18;;
15198;SDS011;7700;48.654;9.070;2022-09-12T08:03:37;21.65;;;20.67;;
15198;SDS011;7700;48.654;9.070;2022-09-12T08:06:04;26.77;;;25.60;;
15198;SDS011;7700;48.654;9.070;2022-09-12T08:08:30;39.10;;;37.42;;
15198;SDS011;7700;48.654;9.070;2022-09-12T08:10:57;61.13;;;58.90;;
15198;SDS011;7700;48.654;9.070;2022-09-12T08:13:24;77.75;;;75.10;;
15198;SDS011;7700;48.654;9.070;2022-09-12T08:15:50;105.10;;;101.50;;
15198;SDS011;7700;48.654;9.070;2022-09-12T08:18:16;96.88;;;93.57;;
15198;SDS011;7700;48.654;9.070;2022-09-12T08:20:42;80.13;;;77.30;;
15198;SDS011;7700;48.654;9.070;2022-09-12T08:23:08;98.03;;;94.70;;
15198;SDS011;7700;48.654;9.070;2022-09-12T08:25:34;90.20;;;87.00;;
15198;SDS011;7700;48.654;9.070;2022-09-12T08:28:00;76.65;;;74.10;;
15198;SDS011;7700;48.654;9.070;2022-09-12T08:30:26;84.95;;;81.93;;
15198;SDS011;7700;48.654;9.070;2022-09-12T08:32:53;29.98;;;28.77;;
15198;SDS011;7700;48.654;9.070;2022-09-12T08:35:19;29.42;;;28.33;;
15198;SDS011;7700;48.654;9.070;2022-09-12T08:37:45;27.75;;;26.63;;
15198;SDS011;7700;48.654;9.070;2022-09-12T08:40:14;27.00;;;26.00;;
15198;SDS011;7700;48.654;9.070;2022-09-12T08:42:51;27.05;;;26.05;;
15198;SDS011;7700;48.654;9.070;2022-09-12T08:45:22;19.08;;;18.45;;
15198;SDS011;7700;48.654;9.070;2022-09-12T08:47:50;17.83;;;17.13;;
15198;SDS011;7700;48.654;9.070;2022-09-12T08:50:17;15.90;;;15.20;;
15198;SDS011;7700;48.654;9.070;2022-09-12T08:52:52;17.58;;;16.88;;
15198;SDS011;7700;48.654;9.070;2022-09-12T08:57:49;9.40;;;9.00;;
15198;SDS011;7700;48.654;9.070;2022-09-12T09:00:16;10.35;;;10.00;;
15198;SDS011;7700;48.654;9.070;2022-09-12T09:08:18;10.45;;;10.05;;
15198;SDS011;7700;48.654;9.070;2022-09-12T09:10:48;9.75;;;9.18;;
15198;SDS011;7700;48.654;9.070;2022-09-12T09:13:26;8.38;;;8.07;;
15198;SDS011;7700;48.654;9.070;2022-09-12T09:16:31;6.22;;;5.82;;
15198;SDS011;7700;48.654;9.070;2022-09-12T09:19:00;5.55;;;5.35;;
15198;SDS011;7700;48.654;9.070;2022-09-12T09:21:28;5.35;;;4.95;;
15198;SDS011;7700;48.654;9.070;2022-09-12T09:24:00;6.20;;;6.00;;
15198;SDS011;7700;48.654;9.070;2022-09-12T09:26:29;5.57;;;5.32;;
15198;SDS011;7700;48.654;9.070;2022-09-12T09:29:01;5.30;;;5.10;;
15198;SDS011;7700;48.654;9.070;2022-09-12T09:31:29;4.85;;;4.65;;
15198;SDS011;7700;48.654;9.070;2022-09-12T09:33:58;5.43;;;5.13;;
15198;SDS011;7700;48.654;9.070;2022-09-12T09:44:15;1.80;;;1.70;;
15198;SDS011;7700;48.654;9.070;2022-09-12T09:46:41;1.90;;;1.70;;
15198;SDS011;7700;48.654;9.070;2022-09-12T09:49:08;1.83;;;1.73;;
15198;SDS011;7700;48.654;9.070;2022-09-12T09:51:37;1.83;;;1.73;;
15198;SDS011;7700;48.654;9.070;2022-09-12T09:56:34;1.70;;;1.60;;
15198;SDS011;7700;48.654;9.070;2022-09-12T09:59:19;1.60;;;1.50;;
15198;SDS011;7700;48.654;9.070;2022-09-12T10:03:32;1.40;;;1.30;;
15198;SDS011;7700;48.654;9.070;2022-09-12T10:06:00;1.92;;;1.52;;
15198;SDS011;7700;48.654;9.070;2022-09-12T10:08:28;1.30;;;1.30;;
15198;SDS011;7700;48.654;9.070;2022-09-12T10:13:23;1.30;;;1.20;;
15198;SDS011;7700;48.654;9.070;2022-09-12T10:15:57;1.38;;;1.35;;
15198;SDS011;7700;48.654;9.070;2022-09-12T10:18:32;1.50;;;1.40;;
15198;SDS011;7700;48.654;9.070;2022-09-12T10:20:58;1.30;;;1.20;;
15198;SDS011;7700;48.654;9.070;2022-09-12T10:23:35;2.05;;;1.40;;
15198;SDS011;7700;48.654;9.070;2022-09-12T10:26:07;2.45;;;1.20;;
15198;SDS011;7700;48.654;9.070;2022-09-12T10:28:36;1.40;;;1.20;;
15198;SDS011;7700;48.654;9.070;2022-09-12T10:31:03;1.33;;;1.15;;
15198;SDS011;7700;48.654;9.070;2022-09-12T10:33:30;3.17;;;1.20;;
15198;SDS011;7700;48.654;9.070;2022-09-12T10:35:59;1.30;;;1.20;;
15198;SDS011;7700;48.654;9.070;2022-09-12T10:38:26;1.25;;;1.15;;
15198;SDS011;7700;48.654;9.070;2022-09-12T10:41:00;1.75;;;1.23;;
15198;SDS011;7700;48.654;9.070;2022-09-12T10:43:37;15.27;;;2.33;;
15198;SDS011;7700;48.654;9.070;2022-09-12T10:48:43;14.98;;;2.10;;
15198;SDS011;7700;48.654;9.070;2022-09-12T10:51:27;1.23;;;0.80;;
15198;SDS011;7700;48.654;9.070;2022-09-12T10:53:54;1.02;;;1.02;;
15198;SDS011;7700;48.654;9.070;2022-09-12T10:56:21;1.20;;;1.05;;
15198;SDS011;7700;48.654;9.070;2022-09-12T10:59:06;18.13;;;2.30;;
15198;SDS011;7700;48.654;9.070;2022-09-12T11:01:44;1.35;;;1.10;;
15198;SDS011;7700;48.654;9.070;2022-09-12T11:11:53;0.80;;;0.80;;
15198;SDS011;7700;48.654;9.070;2022-09-12T11:14:40;0.85;;;0.85;;
15198;SDS011;7700;48.654;9.070;2022-09-12T11:28:05;17.83;;;2.20;;
15198;SDS011;7700;48.654;9.070;2022-09-12T11:31:21;16.00;;;2.05;;
15198;SDS011;7700;48.654;9.070;2022-09-12T11:33:35;18.40;;;1.85;;
15198;SDS011;7700;48.654;9.070;2022-09-12T11:36:04;1.48;;;0.88;;
15198;SDS011;7700;48.654;9.070;2022-09-12T11:41:24;0.85;;;0.85;;
15198;SDS011;7700;48.654;9.070;2022-09-12T11:49:03;0.85;;;0.85;;
15198;SDS011;7700;48.654;9.070;2022-09-12T11:54:29;21.00;;;2.38;;
15198;SDS011;7700;48.654;9.070;2022-09-12T11:57:00;18.95;;;2.38;;
15198;SDS011;7700;48.654;9.070;2022-09-12T11:59:30;17.63;;;2.15;;
15198;SDS011;7700;48.654;9.070;2022-09-12T12:01:58;16.65;;;2.25;;
15198;SDS011;7700;48.654;9.070;2022-09-12T12:04:27;15.95;;;2.15;;
15198;SDS011;7700;48.654;9.070;2022-09-12T12:06:56;0.80;;;0.80;;
15198;SDS011;7700;48.654;9.070;2022-09-12T12:09:26;18.60;;;2.38;;
15198;SDS011;7700;48.654;9.070;2022-09-12T12:11:54;18.88;;;2.17;;
15198;SDS011;7700;48.654;9.070;2022-09-12T12:14:54;0.52;;;0.52;;
15198;SDS011;7700;48.654;9.070;2022-09-12T12:17:15;19.48;;;2.25;;
15198;SDS011;7700;48.654;9.070;2022-09-12T12:19:42;15.63;;;1.77;;
15198;SDS011;7700;48.654;9.070;2022-09-12T12:22:15;16.00;;;1.73;;
15198;SDS011;7700;48.654;9.070;2022-09-12T12:38:01;0.70;;;0.70;;
15198;SDS011;7700;48.654;9.070;2022-09-12T12:40:28;18.30;;;2.03;;
15198;SDS011;7700;48.654;9.070;2022-09-12T12:47:54;16.85;;;1.90;;
15198;SDS011;7700;48.654;9.070;2022-09-12T12:50:22;0.80;;;0.80;;
15198;SDS011;7700;48.654;9.070;2022-09-12T12:52:57;19.73;;;2.05;;
15198;SDS011;7700;48.654;9.070;2022-09-12T12:55:29;1.48;;;0.57;;
15198;SDS011;7700;48.654;9.070;2022-09-12T12:57:58;19.35;;;2.28;;
15198;SDS011;7700;48.654;9.070;2022-09-12T13:05:24;19.67;;;2.05;;
15198;SDS011;7700;48.654;9.070;2022-09-12T13:07:58;17.90;;;1.95;;
15198;SDS011;7700;48.654;9.070;2022-09-12T13:10:27;22.70;;;2.55;;
15198;SDS011;7700;48.654;9.070;2022-09-12T13:12:58;20.85;;;2.35;;
15198;SDS011;7700;48.654;9.070;2022-09-12T13:18:01;1.17;;;0.73;;
15198;SDS011;7700;48.654;9.070;2022-09-12T13:20:29;22.13;;;3.00;;
15198;SDS011;7700;48.654;9.070;2022-09-12T13:22:56;22.92;;;3.13;;
15198;SDS011;7700;48.654;9.070;2022-09-12T13:28:22;19.08;;;2.70;;
15198;SDS011;7700;48.654;9.070;2022-09-12T13:30:43;28.52;;;3.00;;
15198;SDS011;7700;48.654;9.070;2022-09-12T13:41:32;20.52;;;2.42;;
15198;SDS011;7700;48.654;9.070;2022-09-12T13:44:00;20.77;;;2.45;;
15198;SDS011;7700;48.654;9.070;2022-09-12T13:46:29;1.38;;;1.27;;
15198;SDS011;7700;48.654;9.070;2022-09-12T13:48:57;21.02;;;2.15;;
15198;SDS011;7700;48.654;9.070;2022-09-12T13:51:24;18.60;;;2.13;;
15198;SDS011;7700;48.654;9.070;2022-09-12T13:53:51;19.75;;;2.15;;
15198;SDS011;7700;48.654;9.070;2022-09-12T13:56:20;24.63;;;3.10;;
15198;SDS011;7700;48.654;9.070;2022-09-12T13:58:50;2.38;;;0.80;;
15198;SDS011;7700;48.654;9.070;2022-09-12T14:01:17;19.02;;;2.38;;
15198;SDS011;7700;48.654;9.070;2022-09-12T14:06:34;21.92;;;2.25;;
15198;SDS011;7700;48.654;9.070;2022-09-12T14:09:00;17.75;;;2.35;;
15198;SDS011;7700;48.654;9.070;2022-09-12T14:11:27;19.88;;;2.47;;
15198;SDS011;7700;48.654;9.070;2022-09-12T14:13:54;1.38;;;1.17;;
15198;SDS011;7700;48.654;9.070;2022-09-12T14:16:21;19.85;;;2.38;;
15198;SDS011;7700;48.654;9.070;2022-09-12T14:18:48;20.48;;;2.35;;
15198;SDS011;7700;48.654;9.070;2022-09-12T14:23:44;19.58;;;2.35;;
15198;SDS011;7700;48.654;9.070;2022-09-12T14:26:12;19.95;;;2.65;;
15198;SDS011;7700;48.654;9.070;2022-09-12T14:28:41;18.75;;;2.45;;
15198;SDS011;7700;48.654;9.070;2022-09-12T14:33:48;18.42;;;2.35;;
15198;SDS011;7700;48.654;9.070;2022-09-12T14:36:24;17.95;;;2.20;;
15198;SDS011;7700;48.654;9.070;2022-09-12T14:38:58;21.98;;;2.45;;
15198;SDS011;7700;48.654;9.070;2022-09-12T14:41:29;16.23;;;2.15;;
15198;SDS011;7700;48.654;9.070;2022-09-12T14:44:00;20.92;;;2.45;;
15198;SDS011;7700;48.654;9.070;2022-09-12T14:46:30;24.60;;;3.25;;
15198;SDS011;7700;48.654;9.070;2022-09-12T14:48:59;20.40;;;2.53;;
15198;SDS011;7700;48.654;9.070;2022-09-12T14:51:51;18.35;;;2.35;;
15198;SDS011;7700;48.654;9.070;2022-09-12T14:54:33;20.13;;;2.45;;
15198;SDS011;7700;48.654;9.070;2022-09-12T14:57:43;17.92;;;2.35;;
15198;SDS011;7700;48.654;9.070;2022-09-12T14:59:44;17.35;;;2.20;;
15198;SDS011;7700;48.654;9.070;2022-09-12T15:04:41;19.95;;;2.53;;
15198;SDS011;7700;48.654;9.070;2022-09-12T15:07:14;17.30;;;2.10;;
15198;SDS011;7700;48.654;9.070;2022-09-12T15:09:41;16.75;;;2.35;;
15198;SDS011;7700;48.654;9.070;2022-09-12T15:12:08;2.03;;;1.10;;
15198;SDS011;7700;48.654;9.070;2022-09-12T15:14:35;19.88;;;2.35;;
15198;SDS011;7700;48.654;9.070;2022-09-12T15:17:01;17.85;;;2.17;;
15198;SDS011;7700;48.654;9.070;2022-09-12T15:19:27;1.08;;;0.98;;
15198;SDS011;7700;48.654;9.070;2022-09-12T15:21:53;19.48;;;2.38;;
15198;SDS011;7700;48.654;9.070;2022-09-12T15:24:19;19.13;;;2.55;;
15198;SDS011;7700;48.654;9.070;2022-09-12T15:26:45;19.40;;;2.47;;
15198;SDS011;7700;48.654;9.070;2022-09-12T15:29:11;19.38;;;2.47;;
15198;SDS011;7700;48.654;9.070;2022-09-12T15:31:37;20.45;;;2.47;;
15198;SDS011;7700;48.654;9.070;2022-09-12T15:34:04;20.55;;;2.45;;
15198;SDS011;7700;48.654;9.070;2022-09-12T15:36:30;2.08;;;1.88;;
15198;SDS011;7700;48.654;9.070;2022-09-12T15:38:56;16.95;;;2.30;;
15198;SDS011;7700;48.654;9.070;2022-09-12T15:41:30;16.15;;;1.92;;
15198;SDS011;7700;48.654;9.070;2022-09-12T15:43:57;17.92;;;2.35;;
15198;SDS011;7700;48.654;9.070;2022-09-12T15:46:23;20.40;;;2.67;;
15198;SDS011;7700;48.654;9.070;2022-09-12T15:48:49;18.08;;;1.95;;
15198;SDS011;7700;48.654;9.070;2022-09-12T15:51:16;19.33;;;2.55;;
15198;SDS011;7700;48.654;9.070;2022-09-12T15:53:43;18.85;;;2.33;;
15198;SDS011;7700;48.654;9.070;2022-09-12T15:56:09;18.02;;;2.25;;
15198;SDS011;7700;48.654;9.070;2022-09-12T15:58:35;17.38;;;2.25;;
15198;SDS011;7700;48.654;9.070;2022-09-12T16:01:02;19.50;;;2.35;;
15198;SDS011;7700;48.654;9.070;2022-09-12T16:03:29;17.85;;;2.05;;
15198;SDS011;7700;48.654;9.070;2022-09-12T16:05:57;20.40;;;2.33;;
15198;SDS011;7700;48.654;9.070;2022-09-12T16:08:23;18.25;;;2.25;;
15198;SDS011;7700;48.654;9.070;2022-09-12T16:10:54;19.17;;;2.35;;
15198;SDS011;7700;48.654;9.070;2022-09-12T16:13:21;20.98;;;2.75;;
15198;SDS011;7700;48.654;9.070;2022-09-12T16:15:47;17.65;;;2.20;;
15198;SDS011;7700;48.654;9.070;2022-09-12T16:18:13;18.45;;;2.25;;
15198;SDS011;7700;48.654;9.070;2022-09-12T16:20:39;18.30;;;2.35;;
15198;SDS011;7700;48.654;9.070;2022-09-12T16:23:06;2.63;;;0.95;;
15198;SDS011;7700;48.654;9.070;2022-09-12T16:25:32;19.67;;;2.45;;
15198;SDS011;7700;48.654;9.070;2022-09-12T16:27:58;0.90;;;0.90;;
15198;SDS011;7700;48.654;9.070;2022-09-12T16:30:25;1.00;;;0.90;;
15198;SDS011;7700;48.654;9.070;2022-09-12T16:32:51;1.73;;;1.00;;
15198;SDS011;7700;48.654;9.070;2022-09-12T16:35:17;2.08;;;1.00;;
15198;SDS011;7700;48.654;9.070;2022-09-12T16:37:43;0.98;;;0.90;;
15198;SDS011;7700;48.654;9.070;2022-09-12T16:40:09;0.98;;;0.88;;
15198;SDS011;7700;48.654;9.070;2022-09-12T16:42:36;0.95;;;0.90;;
15198;SDS011;7700;48.654;9.070;2022-09-12T16:45:02;0.85;;;0.85;;
15198;SDS011;7700;48.654;9.070;2022-09-12T16:47:29;1.20;;;0.90;;
15198;SDS011;7700;48.654;9.070;2022-09-12T16:49:56;1.95;;;1.00;;
15198;SDS011;7700;48.654;9.070;2022-09-12T16:52:23;1.00;;;0.93;;
15198;SDS011;7700;48.654;9.070;2022-09-12T16:54:49;1.35;;;1.00;;
15198;SDS011;7700;48.654;9.070;2022-09-12T16:57:15;0.80;;;0.80;;
15198;SDS011;7700;48.654;9.070;2022-09-12T16:59:41;1.85;;;0.82;;
15198;SDS011;7700;48.654;9.070;2022-09-12T17:02:10;1.45;;;0.82;;
15198;SDS011;7700;48.654;9.070;2022-09-12T17:04:37;1.50;;;0.85;;
15198;SDS011;7700;48.654;9.070;2022-09-12T17:07:03;1.85;;;0.80;;
15198;SDS011;7700;48.654;9.070;2022-09-12T17:09:29;0.95;;;0.90;;
15198;SDS011;7700;48.654;9.070;2022-09-12T17:11:55;1.60;;;1.00;;
15198;SDS011;7700;48.654;9.070;2022-09-12T17:14:21;1.17;;;1.08;;
15198;SDS011;7700;48.654;9.070;2022-09-12T17:16:47;1.80;;;1.38;;
15198;SDS011;7700;48.654;9.070;2022-09-12T17:19:15;1.70;;;1.10;;
15198;SDS011;7700;48.654;9.070;2022-09-12T17:21:42;2.13;;;1.10;;
15198;SDS011;7700;48.654;9.070;2022-09-12T17:24:08;1.13;;;1.02;;
15198;SDS011;7700;48.654;9.070;2022-09-12T17:26:34;1.83;;;1.23;;
15198;SDS011;7700;48.654;9.070;2022-09-12T17:29:00;0.95;;;0.95;;
15198;SDS011;7700;48.654;9.070;2022-09-12T17:31:26;1.25;;;0.95;;